sensor_id;sensor_type;location;lat;lon;timestamp;temperature;humidity
13569;DHT22;6856;51.460;7.158;2023-01-26T00:02:12;2.70;65.00
13569;DHT22;6856;51.460;7.158;2023-01-26T00:04:45;2.60;65.00
13569;DHT22;6856;51.460;7.158;2023-01-26T00:07:19;2.70;65.10
13569;DHT22;6856;51.460;7.158;2023-01-26T00:09:53;2.70;65.00
13569;DHT22;6856;51.460;7.158;2023-01-26T00:12:28;2.70;65.00
13569;DHT22;6856;51.460;7.158;2023-01-26T00:15:02;2.60;65.00
13569;DHT22;6856;51.460;7.158;2023-01-26T00:17:36;2.70;65.20
13569;DHT22;6856;51.460;7.158;2023-01-26T00:20:11;2.60;65.10
13569;DHT22;6856;51.460;7.158;2023-01-26T00:22:45;2.70;65.20
13569;DHT22;6856;51.460;7.158;2023-01-26T00:25:19;2.70;65.10
13569;DHT22;6856;51.460;7.158;2023-01-26T00:27:55;2.70;65.10
13569;DHT22;6856;51.460;7.158;2023-01-26T00:30:29;2.60;65.00
13569;DHT22;6856;51.460;7.158;2023-01-26T00:33:05;2.60;65.00
13569;DHT22;6856;51.460;7.158;2023-01-26T00:35:38;2.60;65.10
13569;DHT22;6856;51.460;7.158;2023-01-26T00:38:15;2.60;65.10
13569;DHT22;6856;51.460;7.158;2023-01-26T00:40:52;2.60;65.30
13569;DHT22;6856;51.460;7.158;2023-01-26T00:43:27;2.60;65.30
13569;DHT22;6856;51.460;7.158;2023-01-26T00:46:01;2.60;66.20
13569;DHT22;6856;51.460;7.158;2023-01-26T00:48:34;2.60;65.60
13569;DHT22;6856;51.460;7.158;2023-01-26T00:51:08;2.60;65.60
13569;DHT22;6856;51.460;7.158;2023-01-26T00:53:42;2.60;65.70
13569;DHT22;6856;51.460;7.158;2023-01-26T00:56:15;2.50;65.60
13569;DHT22;6856;51.460;7.158;2023-01-26T00:58:51;2.50;65.60
13569;DHT22;6856;51.460;7.158;2023-01-26T01:01:24;2.50;65.50
13569;DHT22;6856;51.460;7.158;2023-01-26T01:03:58;2.50;65.50
13569;DHT22;6856;51.460;7.158;2023-01-26T01:06:32;2.50;65.70
13569;DHT22;6856;51.460;7.158;2023-01-26T01:09:05;2.50;65.80
13569;DHT22;6856;51.460;7.158;2023-01-26T01:11:38;2.40;66.50
13569;DHT22;6856;51.460;7.158;2023-01-26T01:14:15;2.40;65.90
13569;DHT22;6856;51.460;7.158;2023-01-26T01:16:49;2.50;66.00
13569;DHT22;6856;51.460;7.158;2023-01-26T01:19:23;2.50;66.00
13569;DHT22;6856;51.460;7.158;2023-01-26T01:21:56;2.40;65.90
13569;DHT22;6856;51.460;7.158;2023-01-26T01:24:32;2.40;66.00
13569;DHT22;6856;51.460;7.158;2023-01-26T01:27:06;2.40;66.00
13569;DHT22;6856;51.460;7.158;2023-01-26T01:29:41;2.40;66.10
13569;DHT22;6856;51.460;7.158;2023-01-26T01:32:16;2.40;66.20
13569;DHT22;6856;51.460;7.158;2023-01-26T01:34:50;2.40;66.20
13569;DHT22;6856;51.460;7.158;2023-01-26T01:37:24;2.50;66.40
13569;DHT22;6856;51.460;7.158;2023-01-26T01:39:58;2.50;66.50
13569;DHT22;6856;51.460;7.158;2023-01-26T01:42:32;2.50;66.50
13569;DHT22;6856;51.460;7.158;2023-01-26T01:45:42;2.70;67.20
13569;DHT22;6856;51.460;7.158;2023-01-26T01:48:22;2.50;66.50
13569;DHT22;6856;51.460;7.158;2023-01-26T01:51:04;2.50;66.40
13569;DHT22;6856;51.460;7.158;2023-01-26T01:53:49;2.50;66.50
13569;DHT22;6856;51.460;7.158;2023-01-26T01:56:26;2.50;66.50
13569;DHT22;6856;51.460;7.158;2023-01-26T01:59:02;2.50;66.60
13569;DHT22;6856;51.460;7.158;2023-01-26T02:01:43;2.50;67.40
13569;DHT22;6856;51.460;7.158;2023-01-26T02:04:18;2.50;66.70
13569;DHT22;6856;51.460;7.158;2023-01-26T02:06:56;2.50;66.40
13569;DHT22;6856;51.460;7.158;2023-01-26T02:09:35;2.80;67.00
13569;DHT22;6856;51.460;7.158;2023-01-26T02:12:30;2.50;67.50
13569;DHT22;6856;51.460;7.158;2023-01-26T02:15:06;2.50;66.80
13569;DHT22;6856;51.460;7.158;2023-01-26T02:17:42;2.50;66.80
13569;DHT22;6856;51.460;7.158;2023-01-26T02:20:21;2.60;66.90
13569;DHT22;6856;51.460;7.158;2023-01-26T02:23:08;2.50;66.90
13569;DHT22;6856;51.460;7.158;2023-01-26T02:28:53;2.50;66.90
13569;DHT22;6856;51.460;7.158;2023-01-26T02:31:28;2.60;67.00
13569;DHT22;6856;51.460;7.158;2023-01-26T02:34:02;2.60;67.10
13569;DHT22;6856;51.460;7.158;2023-01-26T02:36:35;2.60;67.20
13569;DHT22;6856;51.460;7.158;2023-01-26T02:39:22;2.60;67.20
13569;DHT22;6856;51.460;7.158;2023-01-26T02:42:08;2.60;67.40
13569;DHT22;6856;51.460;7.158;2023-01-26T02:45:00;2.60;67.40
13569;DHT22;6856;51.460;7.158;2023-01-26T02:47:34;2.60;67.30
13569;DHT22;6856;51.460;7.158;2023-01-26T02:50:09;2.90;67.60
13569;DHT22;6856;51.460;7.158;2023-01-26T02:52:42;2.60;67.40
13569;DHT22;6856;51.460;7.158;2023-01-26T02:55:16;2.60;67.20
13569;DHT22;6856;51.460;7.158;2023-01-26T02:58:01;2.60;67.20
13569;DHT22;6856;51.460;7.158;2023-01-26T03:00:36;2.80;67.50
13569;DHT22;6856;51.460;7.158;2023-01-26T03:03:14;2.60;67.40
13569;DHT22;6856;51.460;7.158;2023-01-26T03:05:50;2.60;67.60
13569;DHT22;6856;51.460;7.158;2023-01-26T03:08:24;2.70;67.70
13569;DHT22;6856;51.460;7.158;2023-01-26T03:10:57;2.60;67.60
13569;DHT22;6856;51.460;7.158;2023-01-26T03:13:33;2.60;67.70
13569;DHT22;6856;51.460;7.158;2023-01-26T03:16:08;2.60;67.80
13569;DHT22;6856;51.460;7.158;2023-01-26T03:18:42;2.60;67.80
13569;DHT22;6856;51.460;7.158;2023-01-26T03:21:34;2.60;67.80
13569;DHT22;6856;51.460;7.158;2023-01-26T03:24:25;2.70;67.90
13569;DHT22;6856;51.460;7.158;2023-01-26T03:27:17;2.70;68.60
13569;DHT22;6856;51.460;7.158;2023-01-26T03:30:01;2.70;67.90
13569;DHT22;6856;51.460;7.158;2023-01-26T03:32:35;2.70;68.00
13569;DHT22;6856;51.460;7.158;2023-01-26T03:35:09;3.00;68.10
13569;DHT22;6856;51.460;7.158;2023-01-26T03:37:46;2.70;67.90
13569;DHT22;6856;51.460;7.158;2023-01-26T03:40:26;2.70;67.80
13569;DHT22;6856;51.460;7.158;2023-01-26T03:43:20;2.70;67.70
13569;DHT22;6856;51.460;7.158;2023-01-26T03:46:13;2.70;67.70
13569;DHT22;6856;51.460;7.158;2023-01-26T03:49:04;2.70;67.70
13569;DHT22;6856;51.460;7.158;2023-01-26T03:51:56;2.70;67.80
13569;DHT22;6856;51.460;7.158;2023-01-26T03:54:47;2.70;67.80
13569;DHT22;6856;51.460;7.158;2023-01-26T03:57:38;2.70;67.90
13569;DHT22;6856;51.460;7.158;2023-01-26T04:00:12;3.00;68.20
13569;DHT22;6856;51.460;7.158;2023-01-26T04:02:48;2.80;68.10
13569;DHT22;6856;51.460;7.158;2023-01-26T04:05:39;2.80;68.40
13569;DHT22;6856;51.460;7.158;2023-01-26T04:08:47;2.80;68.10
13569;DHT22;6856;51.460;7.158;2023-01-26T04:11:21;2.80;68.00
13569;DHT22;6856;51.460;7.158;2023-01-26T04:13:54;2.80;68.00
13569;DHT22;6856;51.460;7.158;2023-01-26T04:16:45;2.90;68.20
13569;DHT22;6856;51.460;7.158;2023-01-26T04:19:38;2.80;68.70
13569;DHT22;6856;51.460;7.158;2023-01-26T04:22:29;2.80;67.90
13569;DHT22;6856;51.460;7.158;2023-01-26T04:25:16;2.80;68.00
13569;DHT22;6856;51.460;7.158;2023-01-26T04:27:51;2.80;67.90
13569;DHT22;6856;51.460;7.158;2023-01-26T04:30:25;2.90;68.00
13569;DHT22;6856;51.460;7.158;2023-01-26T04:32:58;2.80;68.00
13569;DHT22;6856;51.460;7.158;2023-01-26T04:35:33;2.80;68.10
13569;DHT22;6856;51.460;7.158;2023-01-26T04:38:07;2.80;68.10
13569;DHT22;6856;51.460;7.158;2023-01-26T04:40:41;2.80;68.20
13569;DHT22;6856;51.460;7.158;2023-01-26T04:43:15;2.80;68.30
13569;DHT22;6856;51.460;7.158;2023-01-26T04:45:56;2.80;68.20
13569;DHT22;6856;51.460;7.158;2023-01-26T04:48:31;2.80;68.30
13569;DHT22;6856;51.460;7.158;2023-01-26T04:51:11;2.80;68.30
13569;DHT22;6856;51.460;7.158;2023-01-26T04:53:47;2.80;68.40
13569;DHT22;6856;51.460;7.158;2023-01-26T04:56:24;2.80;68.30
13569;DHT22;6856;51.460;7.158;2023-01-26T04:59:01;2.80;68.40
13569;DHT22;6856;51.460;7.158;2023-01-26T05:01:37;2.80;68.40
13569;DHT22;6856;51.460;7.158;2023-01-26T05:04:11;2.80;68.40
13569;DHT22;6856;51.460;7.158;2023-01-26T05:06:46;2.80;68.40
13569;DHT22;6856;51.460;7.158;2023-01-26T05:09:20;2.80;68.30
13569;DHT22;6856;51.460;7.158;2023-01-26T05:11:53;2.80;68.30
13569;DHT22;6856;51.460;7.158;2023-01-26T05:14:47;2.80;68.30
13569;DHT22;6856;51.460;7.158;2023-01-26T05:17:21;2.80;68.30
13569;DHT22;6856;51.460;7.158;2023-01-26T05:19:54;2.80;68.30
13569;DHT22;6856;51.460;7.158;2023-01-26T05:22:29;2.80;68.50
13569;DHT22;6856;51.460;7.158;2023-01-26T05:25:03;2.80;68.50
13569;DHT22;6856;51.460;7.158;2023-01-26T05:27:37;2.80;68.70
13569;DHT22;6856;51.460;7.158;2023-01-26T05:30:12;2.80;68.70
13569;DHT22;6856;51.460;7.158;2023-01-26T05:32:47;2.80;68.80
13569;DHT22;6856;51.460;7.158;2023-01-26T05:35:20;2.90;68.90
13569;DHT22;6856;51.460;7.158;2023-01-26T05:37:56;2.90;68.80
13569;DHT22;6856;51.460;7.158;2023-01-26T05:40:29;2.90;68.80
13569;DHT22;6856;51.460;7.158;2023-01-26T05:43:03;2.90;68.80
13569;DHT22;6856;51.460;7.158;2023-01-26T05:45:36;2.90;68.70
13569;DHT22;6856;51.460;7.158;2023-01-26T05:48:10;3.00;68.70
13569;DHT22;6856;51.460;7.158;2023-01-26T05:50:44;2.90;68.60
13569;DHT22;6856;51.460;7.158;2023-01-26T05:53:19;2.80;68.50
13569;DHT22;6856;51.460;7.158;2023-01-26T05:55:53;2.80;68.60
13569;DHT22;6856;51.460;7.158;2023-01-26T05:58:27;2.80;68.60
13569;DHT22;6856;51.460;7.158;2023-01-26T06:01:03;2.80;68.80
13569;DHT22;6856;51.460;7.158;2023-01-26T06:03:36;2.80;68.90
13569;DHT22;6856;51.460;7.158;2023-01-26T06:06:10;2.90;69.00
13569;DHT22;6856;51.460;7.158;2023-01-26T06:08:46;2.90;69.00
13569;DHT22;6856;51.460;7.158;2023-01-26T06:11:19;2.90;69.00
13569;DHT22;6856;51.460;7.158;2023-01-26T06:13:53;2.90;69.00
13569;DHT22;6856;51.460;7.158;2023-01-26T06:16:27;2.90;69.00
13569;DHT22;6856;51.460;7.158;2023-01-26T06:19:00;2.90;69.00
13569;DHT22;6856;51.460;7.158;2023-01-26T06:21:34;2.90;69.00
13569;DHT22;6856;51.460;7.158;2023-01-26T06:24:10;2.90;69.10
13569;DHT22;6856;51.460;7.158;2023-01-26T06:26:46;2.90;69.20
13569;DHT22;6856;51.460;7.158;2023-01-26T06:29:20;3.00;69.30
13569;DHT22;6856;51.460;7.158;2023-01-26T06:31:54;2.90;69.20
13569;DHT22;6856;51.460;7.158;2023-01-26T06:34:27;2.90;69.30
13569;DHT22;6856;51.460;7.158;2023-01-26T06:37:01;3.00;69.30
13569;DHT22;6856;51.460;7.158;2023-01-26T06:39:36;2.90;69.30
13569;DHT22;6856;51.460;7.158;2023-01-26T06:42:10;3.00;69.40
13569;DHT22;6856;51.460;7.158;2023-01-26T06:44:45;3.00;69.50
13569;DHT22;6856;51.460;7.158;2023-01-26T06:47:18;3.20;69.50
13569;DHT22;6856;51.460;7.158;2023-01-26T06:49:53;3.00;69.30
13569;DHT22;6856;51.460;7.158;2023-01-26T06:52:30;3.00;69.30
13569;DHT22;6856;51.460;7.158;2023-01-26T06:55:15;3.20;69.50
13569;DHT22;6856;51.460;7.158;2023-01-26T06:57:51;3.10;69.30
13569;DHT22;6856;51.460;7.158;2023-01-26T07:00:25;3.10;69.20
13569;DHT22;6856;51.460;7.158;2023-01-26T07:02:59;3.10;69.30
13569;DHT22;6856;51.460;7.158;2023-01-26T07:05:33;3.10;69.20
13569;DHT22;6856;51.460;7.158;2023-01-26T07:08:09;3.10;69.20
13569;DHT22;6856;51.460;7.158;2023-01-26T07:10:44;3.10;69.20
13569;DHT22;6856;51.460;7.158;2023-01-26T07:13:18;3.20;69.20
13569;DHT22;6856;51.460;7.158;2023-01-26T07:15:59;3.20;69.20
13569;DHT22;6856;51.460;7.158;2023-01-26T07:18:34;3.20;69.20
13569;DHT22;6856;51.460;7.158;2023-01-26T07:21:11;3.00;69.00
13569;DHT22;6856;51.460;7.158;2023-01-26T07:23:46;3.20;69.30
13569;DHT22;6856;51.460;7.158;2023-01-26T07:26:22;3.20;69.30
13569;DHT22;6856;51.460;7.158;2023-01-26T07:28:56;3.20;69.20
13569;DHT22;6856;51.460;7.158;2023-01-26T07:31:30;3.20;69.30
13569;DHT22;6856;51.460;7.158;2023-01-26T07:34:04;3.20;69.20
13569;DHT22;6856;51.460;7.158;2023-01-26T07:36:37;3.20;69.20
13569;DHT22;6856;51.460;7.158;2023-01-26T07:39:11;3.20;69.20
13569;DHT22;6856;51.460;7.158;2023-01-26T07:41:48;3.20;69.20
13569;DHT22;6856;51.460;7.158;2023-01-26T07:44:21;3.30;69.30
13569;DHT22;6856;51.460;7.158;2023-01-26T07:46:55;3.30;69.30
13569;DHT22;6856;51.460;7.158;2023-01-26T07:49:29;3.20;69.30
13569;DHT22;6856;51.460;7.158;2023-01-26T07:52:05;3.30;69.20
13569;DHT22;6856;51.460;7.158;2023-01-26T07:54:40;3.30;69.20
13569;DHT22;6856;51.460;7.158;2023-01-26T07:57:15;3.30;69.20
13569;DHT22;6856;51.460;7.158;2023-01-26T07:59:49;3.30;69.20
13569;DHT22;6856;51.460;7.158;2023-01-26T08:02:23;3.30;69.30
13569;DHT22;6856;51.460;7.158;2023-01-26T08:04:56;3.30;69.30
13569;DHT22;6856;51.460;7.158;2023-01-26T08:07:31;3.30;69.20
13569;DHT22;6856;51.460;7.158;2023-01-26T08:10:05;3.30;69.30
13569;DHT22;6856;51.460;7.158;2023-01-26T08:12:43;3.30;69.30
13569;DHT22;6856;51.460;7.158;2023-01-26T08:15:16;3.30;69.30
13569;DHT22;6856;51.460;7.158;2023-01-26T08:17:51;3.50;69.40
13569;DHT22;6856;51.460;7.158;2023-01-26T08:20:25;3.40;69.50
13569;DHT22;6856;51.460;7.158;2023-01-26T08:23:00;3.40;69.40
13569;DHT22;6856;51.460;7.158;2023-01-26T08:25:34;3.40;69.50
13569;DHT22;6856;51.460;7.158;2023-01-26T08:28:09;3.40;69.40
13569;DHT22;6856;51.460;7.158;2023-01-26T08:30:43;3.40;69.40
13569;DHT22;6856;51.460;7.158;2023-01-26T08:33:17;3.40;69.40
13569;DHT22;6856;51.460;7.158;2023-01-26T08:35:51;3.40;69.40
13569;DHT22;6856;51.460;7.158;2023-01-26T08:38:26;3.40;69.40
13569;DHT22;6856;51.460;7.158;2023-01-26T08:41:03;3.40;69.50
13569;DHT22;6856;51.460;7.158;2023-01-26T08:43:38;3.50;69.50
13569;DHT22;6856;51.460;7.158;2023-01-26T08:46:12;3.50;69.50
13569;DHT22;6856;51.460;7.158;2023-01-26T08:48:47;3.40;70.10
13569;DHT22;6856;51.460;7.158;2023-01-26T08:51:20;3.50;69.50
13569;DHT22;6856;51.460;7.158;2023-01-26T08:53:54;3.50;69.60
13569;DHT22;6856;51.460;7.158;2023-01-26T08:56:30;3.60;69.80
13569;DHT22;6856;51.460;7.158;2023-01-26T08:59:06;3.50;69.70
13569;DHT22;6856;51.460;7.158;2023-01-26T09:01:40;3.50;69.70
13569;DHT22;6856;51.460;7.158;2023-01-26T09:04:13;3.50;69.70
13569;DHT22;6856;51.460;7.158;2023-01-26T09:06:47;3.60;69.70
13569;DHT22;6856;51.460;7.158;2023-01-26T09:09:23;3.50;69.60
13569;DHT22;6856;51.460;7.158;2023-01-26T09:11:57;3.60;69.70
13569;DHT22;6856;51.460;7.158;2023-01-26T09:14:32;3.50;69.70
13569;DHT22;6856;51.460;7.158;2023-01-26T09:17:06;3.60;69.70
13569;DHT22;6856;51.460;7.158;2023-01-26T09:19:40;3.60;69.80
13569;DHT22;6856;51.460;7.158;2023-01-26T09:22:15;3.60;69.80
13569;DHT22;6856;51.460;7.158;2023-01-26T09:24:49;3.60;69.80
13569;DHT22;6856;51.460;7.158;2023-01-26T09:27:23;3.60;69.70
13569;DHT22;6856;51.460;7.158;2023-01-26T09:29:58;3.60;69.70
13569;DHT22;6856;51.460;7.158;2023-01-26T09:32:32;3.60;69.70
13569;DHT22;6856;51.460;7.158;2023-01-26T09:35:07;3.60;69.70
13569;DHT22;6856;51.460;7.158;2023-01-26T09:37:45;3.60;69.80
13569;DHT22;6856;51.460;7.158;2023-01-26T09:40:21;3.60;69.80
13569;DHT22;6856;51.460;7.158;2023-01-26T09:43:15;3.60;69.90
13569;DHT22;6856;51.460;7.158;2023-01-26T09:46:06;3.60;69.90
13569;DHT22;6856;51.460;7.158;2023-01-26T09:49:02;3.60;70.00
13569;DHT22;6856;51.460;7.158;2023-01-26T09:51:40;3.60;70.00
13569;DHT22;6856;51.460;7.158;2023-01-26T09:54:26;3.60;70.00
13569;DHT22;6856;51.460;7.158;2023-01-26T09:57:11;3.60;70.00
13569;DHT22;6856;51.460;7.158;2023-01-26T09:59:49;3.60;70.10
13569;DHT22;6856;51.460;7.158;2023-01-26T10:02:40;3.60;70.00
13569;DHT22;6856;51.460;7.158;2023-01-26T10:05:32;3.70;70.20
13569;DHT22;6856;51.460;7.158;2023-01-26T10:08:17;3.70;70.10
13569;DHT22;6856;51.460;7.158;2023-01-26T10:10:57;3.70;70.20
13569;DHT22;6856;51.460;7.158;2023-01-26T10:13:34;3.70;70.80
13569;DHT22;6856;51.460;7.158;2023-01-26T10:16:09;3.70;70.10
13569;DHT22;6856;51.460;7.158;2023-01-26T10:18:52;3.70;70.20
13569;DHT22;6856;51.460;7.158;2023-01-26T10:21:31;3.70;70.20
13569;DHT22;6856;51.460;7.158;2023-01-26T10:24:11;3.70;70.20
13569;DHT22;6856;51.460;7.158;2023-01-26T10:26:47;3.70;70.30
13569;DHT22;6856;51.460;7.158;2023-01-26T10:29:23;3.70;70.40
13569;DHT22;6856;51.460;7.158;2023-01-26T10:31:57;3.70;70.30
13569;DHT22;6856;51.460;7.158;2023-01-26T10:34:33;3.70;70.30
13569;DHT22;6856;51.460;7.158;2023-01-26T10:37:19;3.70;70.20
13569;DHT22;6856;51.460;7.158;2023-01-26T10:39:59;3.70;70.20
13569;DHT22;6856;51.460;7.158;2023-01-26T10:42:35;3.70;70.20
13569;DHT22;6856;51.460;7.158;2023-01-26T10:45:24;3.70;70.20
13569;DHT22;6856;51.460;7.158;2023-01-26T10:48:03;3.70;70.40
13569;DHT22;6856;51.460;7.158;2023-01-26T10:50:48;3.70;70.30
13569;DHT22;6856;51.460;7.158;2023-01-26T10:53:23;3.70;70.30
13569;DHT22;6856;51.460;7.158;2023-01-26T10:56:03;3.80;70.50
13569;DHT22;6856;51.460;7.158;2023-01-26T10:58:46;3.70;70.50
13569;DHT22;6856;51.460;7.158;2023-01-26T11:01:22;3.80;70.70
13569;DHT22;6856;51.460;7.158;2023-01-26T11:04:03;3.80;70.70
13569;DHT22;6856;51.460;7.158;2023-01-26T11:06:39;3.80;70.80
13569;DHT22;6856;51.460;7.158;2023-01-26T11:09:18;3.80;70.70
13569;DHT22;6856;51.460;7.158;2023-01-26T11:11:58;3.90;70.80
13569;DHT22;6856;51.460;7.158;2023-01-26T11:14:33;3.90;70.80
13569;DHT22;6856;51.460;7.158;2023-01-26T11:17:14;3.90;70.70
13569;DHT22;6856;51.460;7.158;2023-01-26T11:20:06;3.90;70.70
13569;DHT22;6856;51.460;7.158;2023-01-26T11:23:04;3.90;70.80
13569;DHT22;6856;51.460;7.158;2023-01-26T11:26:00;3.90;70.70
13569;DHT22;6856;51.460;7.158;2023-01-26T11:28:57;3.90;70.60
13569;DHT22;6856;51.460;7.158;2023-01-26T11:31:48;4.00;70.80
13569;DHT22;6856;51.460;7.158;2023-01-26T11:34:38;4.00;70.80
13569;DHT22;6856;51.460;7.158;2023-01-26T11:37:35;4.00;70.80
13569;DHT22;6856;51.460;7.158;2023-01-26T11:40:30;4.00;70.80
13569;DHT22;6856;51.460;7.158;2023-01-26T11:43:23;4.00;70.90
13569;DHT22;6856;51.460;7.158;2023-01-26T11:46:46;4.10;70.80
13569;DHT22;6856;51.460;7.158;2023-01-26T11:49:43;4.10;70.90
13569;DHT22;6856;51.460;7.158;2023-01-26T11:52:45;4.10;70.80
13569;DHT22;6856;51.460;7.158;2023-01-26T11:55:36;4.20;70.80
13569;DHT22;6856;51.460;7.158;2023-01-26T11:58:30;4.10;70.70
13569;DHT22;6856;51.460;7.158;2023-01-26T12:01:11;4.10;70.80
13569;DHT22;6856;51.460;7.158;2023-01-26T12:03:51;4.10;70.80
13569;DHT22;6856;51.460;7.158;2023-01-26T12:06:30;4.00;70.70
13569;DHT22;6856;51.460;7.158;2023-01-26T12:09:14;4.00;70.80
13569;DHT22;6856;51.460;7.158;2023-01-26T12:11:58;4.00;70.90
13569;DHT22;6856;51.460;7.158;2023-01-26T12:14:43;4.10;71.00
13569;DHT22;6856;51.460;7.158;2023-01-26T12:17:41;4.10;71.10
13569;DHT22;6856;51.460;7.158;2023-01-26T12:20:28;4.10;71.20
13569;DHT22;6856;51.460;7.158;2023-01-26T12:23:12;4.10;71.10
13569;DHT22;6856;51.460;7.158;2023-01-26T12:25:55;4.10;71.10
13569;DHT22;6856;51.460;7.158;2023-01-26T12:28:38;4.10;71.20
13569;DHT22;6856;51.460;7.158;2023-01-26T12:31:22;4.10;71.20
13569;DHT22;6856;51.460;7.158;2023-01-26T12:34:01;4.20;71.30
13569;DHT22;6856;51.460;7.158;2023-01-26T12:36:42;4.20;71.20
13569;DHT22;6856;51.460;7.158;2023-01-26T12:39:30;4.20;71.90
13569;DHT22;6856;51.460;7.158;2023-01-26T12:42:18;4.20;71.70
13569;DHT22;6856;51.460;7.158;2023-01-26T12:45:01;4.20;71.30
13569;DHT22;6856;51.460;7.158;2023-01-26T12:47:45;4.20;71.20
13569;DHT22;6856;51.460;7.158;2023-01-26T12:50:28;4.30;71.40
13569;DHT22;6856;51.460;7.158;2023-01-26T12:53:11;4.20;71.30
13569;DHT22;6856;51.460;7.158;2023-01-26T12:55:51;4.30;71.50
13569;DHT22;6856;51.460;7.158;2023-01-26T12:58:32;4.30;71.50
13569;DHT22;6856;51.460;7.158;2023-01-26T13:01:13;4.30;72.30
13569;DHT22;6856;51.460;7.158;2023-01-26T13:03:52;4.40;71.70
13569;DHT22;6856;51.460;7.158;2023-01-26T13:06:28;4.40;71.60
13569;DHT22;6856;51.460;7.158;2023-01-26T13:09:03;4.40;71.50
13569;DHT22;6856;51.460;7.158;2023-01-26T13:11:53;4.40;71.50
13569;DHT22;6856;51.460;7.158;2023-01-26T13:14:33;4.40;71.40
13569;DHT22;6856;51.460;7.158;2023-01-26T13:17:46;4.40;71.40
13569;DHT22;6856;51.460;7.158;2023-01-26T13:20:46;4.40;71.40
13569;DHT22;6856;51.460;7.158;2023-01-26T13:23:40;4.40;71.30
13569;DHT22;6856;51.460;7.158;2023-01-26T13:26:20;4.40;71.40
13569;DHT22;6856;51.460;7.158;2023-01-26T13:29:28;4.40;71.30
13569;DHT22;6856;51.460;7.158;2023-01-26T13:35:26;4.40;71.50
13569;DHT22;6856;51.460;7.158;2023-01-26T13:38:08;4.40;71.40
13569;DHT22;6856;51.460;7.158;2023-01-26T13:40:47;4.50;71.40
13569;DHT22;6856;51.460;7.158;2023-01-26T13:43:28;4.40;71.30
13569;DHT22;6856;51.460;7.158;2023-01-26T13:46:10;4.40;71.30
13569;DHT22;6856;51.460;7.158;2023-01-26T13:48:51;4.40;71.40
13569;DHT22;6856;51.460;7.158;2023-01-26T13:51:28;4.40;71.40
13569;DHT22;6856;51.460;7.158;2023-01-26T13:54:05;4.40;71.50
13569;DHT22;6856;51.460;7.158;2023-01-26T13:56:58;4.40;71.50
13569;DHT22;6856;51.460;7.158;2023-01-26T13:59:47;4.40;71.50
13569;DHT22;6856;51.460;7.158;2023-01-26T14:02:24;4.40;71.60
13569;DHT22;6856;51.460;7.158;2023-01-26T14:05:01;4.50;71.60
13569;DHT22;6856;51.460;7.158;2023-01-26T14:07:37;4.40;71.60
13569;DHT22;6856;51.460;7.158;2023-01-26T14:10:15;4.50;71.80
13569;DHT22;6856;51.460;7.158;2023-01-26T14:12:53;4.50;71.80
13569;DHT22;6856;51.460;7.158;2023-01-26T14:15:30;4.50;71.90
13569;DHT22;6856;51.460;7.158;2023-01-26T14:18:13;4.50;71.90
13569;DHT22;6856;51.460;7.158;2023-01-26T14:21:02;4.50;71.90
13569;DHT22;6856;51.460;7.158;2023-01-26T14:23:37;4.60;72.10
13569;DHT22;6856;51.460;7.158;2023-01-26T14:26:16;4.60;72.00
13569;DHT22;6856;51.460;7.158;2023-01-26T14:28:54;4.60;72.20
13569;DHT22;6856;51.460;7.158;2023-01-26T14:31:29;4.60;72.20
13569;DHT22;6856;51.460;7.158;2023-01-26T14:34:08;4.70;72.30
13569;DHT22;6856;51.460;7.158;2023-01-26T14:36:44;4.70;72.40
13569;DHT22;6856;51.460;7.158;2023-01-26T14:39:19;4.70;72.30
13569;DHT22;6856;51.460;7.158;2023-01-26T14:41:53;4.70;72.40
13569;DHT22;6856;51.460;7.158;2023-01-26T14:44:27;4.70;72.30
13569;DHT22;6856;51.460;7.158;2023-01-26T14:47:04;4.80;72.60
13569;DHT22;6856;51.460;7.158;2023-01-26T14:49:45;4.80;72.70
13569;DHT22;6856;51.460;7.158;2023-01-26T14:52:26;5.00;72.80
13569;DHT22;6856;51.460;7.158;2023-01-26T14:55:04;4.90;72.80
13569;DHT22;6856;51.460;7.158;2023-01-26T14:57:44;4.90;72.80
13569;DHT22;6856;51.460;7.158;2023-01-26T15:00:23;4.90;72.80
13569;DHT22;6856;51.460;7.158;2023-01-26T15:03:03;5.00;72.90
13569;DHT22;6856;51.460;7.158;2023-01-26T15:05:39;5.00;72.90
13569;DHT22;6856;51.460;7.158;2023-01-26T15:08:21;5.10;72.90
13569;DHT22;6856;51.460;7.158;2023-01-26T15:10:56;5.10;73.00
13569;DHT22;6856;51.460;7.158;2023-01-26T15:13:47;5.10;72.90
13569;DHT22;6856;51.460;7.158;2023-01-26T15:16:25;5.10;72.80
13569;DHT22;6856;51.460;7.158;2023-01-26T15:19:00;5.20;72.90
13569;DHT22;6856;51.460;7.158;2023-01-26T15:21:38;5.20;73.00
13569;DHT22;6856;51.460;7.158;2023-01-26T15:24:16;5.20;73.00
13569;DHT22;6856;51.460;7.158;2023-01-26T15:26:50;5.20;72.90
13569;DHT22;6856;51.460;7.158;2023-01-26T15:29:25;5.30;73.00
13569;DHT22;6856;51.460;7.158;2023-01-26T15:32:04;5.30;73.00
13569;DHT22;6856;51.460;7.158;2023-01-26T15:34:39;5.30;73.00
13569;DHT22;6856;51.460;7.158;2023-01-26T15:37:28;5.40;72.90
13569;DHT22;6856;51.460;7.158;2023-01-26T15:40:09;5.40;73.00
13569;DHT22;6856;51.460;7.158;2023-01-26T15:42:46;5.40;73.00
13569;DHT22;6856;51.460;7.158;2023-01-26T15:45:23;5.40;72.90
13569;DHT22;6856;51.460;7.158;2023-01-26T15:47:58;5.40;72.90
13569;DHT22;6856;51.460;7.158;2023-01-26T15:50:32;5.40;72.90
13569;DHT22;6856;51.460;7.158;2023-01-26T15:53:10;5.50;72.90
13569;DHT22;6856;51.460;7.158;2023-01-26T15:55:48;5.50;73.10
13569;DHT22;6856;51.460;7.158;2023-01-26T15:58:26;5.50;73.00
13569;DHT22;6856;51.460;7.158;2023-01-26T16:01:03;5.50;72.90
13569;DHT22;6856;51.460;7.158;2023-01-26T16:03:37;5.60;73.10
13569;DHT22;6856;51.460;7.158;2023-01-26T16:06:23;5.60;72.90
13569;DHT22;6856;51.460;7.158;2023-01-26T16:08:58;5.60;73.00
13569;DHT22;6856;51.460;7.158;2023-01-26T16:11:38;5.60;72.90
13569;DHT22;6856;51.460;7.158;2023-01-26T16:14:16;5.60;72.90
13569;DHT22;6856;51.460;7.158;2023-01-26T16:16:50;5.70;72.90
13569;DHT22;6856;51.460;7.158;2023-01-26T16:19:24;5.60;72.80
13569;DHT22;6856;51.460;7.158;2023-01-26T16:22:08;5.70;72.80
13569;DHT22;6856;51.460;7.158;2023-01-26T16:24:45;5.70;72.80
13569;DHT22;6856;51.460;7.158;2023-01-26T16:27:21;5.70;72.80
13569;DHT22;6856;51.460;7.158;2023-01-26T16:29:55;5.70;72.80
13569;DHT22;6856;51.460;7.158;2023-01-26T16:32:28;5.70;72.80
13569;DHT22;6856;51.460;7.158;2023-01-26T16:35:09;5.80;72.90
13569;DHT22;6856;51.460;7.158;2023-01-26T16:37:44;5.70;72.90
13569;DHT22;6856;51.460;7.158;2023-01-26T16:40:18;5.80;72.90
13569;DHT22;6856;51.460;7.158;2023-01-26T16:42:54;5.80;72.80
13569;DHT22;6856;51.460;7.158;2023-01-26T16:45:28;5.80;72.80
13569;DHT22;6856;51.460;7.158;2023-01-26T16:48:09;5.80;72.70
13569;DHT22;6856;51.460;7.158;2023-01-26T16:50:45;5.80;72.80
13569;DHT22;6856;51.460;7.158;2023-01-26T16:53:22;5.80;72.70
13569;DHT22;6856;51.460;7.158;2023-01-26T16:55:59;6.00;73.00
13569;DHT22;6856;51.460;7.158;2023-01-26T16:58:34;5.80;72.80
13569;DHT22;6856;51.460;7.158;2023-01-26T17:01:15;5.90;72.90
13569;DHT22;6856;51.460;7.158;2023-01-26T17:03:52;5.80;72.90
13569;DHT22;6856;51.460;7.158;2023-01-26T17:06:26;5.80;72.80
13569;DHT22;6856;51.460;7.158;2023-01-26T17:09:01;5.90;72.90
13569;DHT22;6856;51.460;7.158;2023-01-26T17:11:35;5.90;73.00
13569;DHT22;6856;51.460;7.158;2023-01-26T17:14:11;5.90;72.90
13569;DHT22;6856;51.460;7.158;2023-01-26T17:16:45;5.90;72.90
13569;DHT22;6856;51.460;7.158;2023-01-26T17:19:19;5.90;72.90
13569;DHT22;6856;51.460;7.158;2023-01-26T17:21:52;5.90;72.90
13569;DHT22;6856;51.460;7.158;2023-01-26T17:24:26;5.90;72.90